Time;durP1;ratioP1;P1;durP2;ratioP2;P2;SDS_P1;SDS_P2;PMS_P1;PMS_P2;Temp;Humidity;BMP_temperature;BMP_pressure;BME280_temperature;BME280_humidity;BME280_pressure;Samples;Min_cycle;Max_cycle;Signal;HPM_P1;HPM_P2
2023/08/16 00:00:14;;;;;;;5.05;2.30;;;23.80;99.90;;;;;;5048410;28;20209;-23
2023/08/16 00:02:44;;;;;;;4.90;2.20;;;23.80;99.90;;;;;;5046705;28;20206;-24
2023/08/16 00:05:11;;;;;;;4.20;2.40;;;23.80;99.90;;;;;;5046623;28;20678;-24
2023/08/16 00:07:41;;;;;;;3.90;1.90;;;23.80;99.90;;;;;;5047688;28;20246;-24
2023/08/16 00:10:11;;;;;;;5.68;2.13;;;23.70;99.90;;;;;;5046464;28;20200;-24
2023/08/16 00:12:44;;;;;;;4.28;2.10;;;23.80;99.90;;;;;;5048079;28;20208;-24
2023/08/16 00:15:11;;;;;;;2.65;1.95;;;23.70;99.90;;;;;;5047987;28;20192;-31
2023/08/16 00:17:41;;;;;;;4.78;2.42;;;23.70;99.90;;;;;;5047956;28;20582;-31
2023/08/16 00:20:11;;;;;;;3.75;2.20;;;23.70;99.90;;;;;;5047694;28;20661;-31
2023/08/16 00:22:38;;;;;;;3.50;2.00;;;23.70;99.90;;;;;;5048246;28;20717;-31
2023/08/16 00:25:06;;;;;;;6.10;2.30;;;23.70;99.90;;;;;;5046592;28;20208;-31
2023/08/16 00:27:36;;;;;;;3.67;2.10;;;23.70;99.90;;;;;;5047868;28;20250;-31
2023/08/16 00:30:06;;;;;;;4.75;2.10;;;23.70;99.90;;;;;;5046290;28;20261;-31
2023/08/16 00:32:37;;;;;;;4.32;2.13;;;23.70;99.90;;;;;;5046290;28;20254;-31
2023/08/16 00:35:09;;;;;;;4.82;2.08;;;23.70;99.90;;;;;;5046198;28;20224;-31
2023/08/16 00:37:38;;;;;;;6.05;2.40;;;23.70;99.90;;;;;;5045003;28;20224;-31
2023/08/16 00:40:06;;;;;;;5.20;2.45;;;23.70;99.90;;;;;;5047471;28;20231;-32
2023/08/16 00:42:33;;;;;;;4.45;2.00;;;23.70;99.90;;;;;;5029530;28;20212;-31
2023/08/16 00:45:03;;;;;;;5.47;2.40;;;23.70;99.90;;;;;;5045597;28;20635;-31
2023/08/16 00:47:32;;;;;;;7.03;2.30;;;23.70;99.90;;;;;;5045606;28;20718;-31
2023/08/16 00:50:02;;;;;;;5.45;2.63;;;23.70;99.90;;;;;;5045810;28;20196;-32
2023/08/16 00:52:30;;;;;;;9.25;2.40;;;23.70;99.90;;;;;;5045716;28;20199;-31
2023/08/16 00:55:02;;;;;;;6.00;3.03;;;23.70;99.90;;;;;;5047217;28;20208;-31
2023/08/16 00:57:30;;;;;;;6.50;2.70;;;23.70;99.90;;;;;;5046820;28;20201;-31
2023/08/16 00:59:57;;;;;;;5.45;2.10;;;23.70;99.90;;;;;;5014361;28;20205;-32
2023/08/16 01:02:27;;;;;;;4.68;2.47;;;23.70;99.90;;;;;;5009644;28;20210;-31
2023/08/16 01:04:58;;;;;;;5.60;2.38;;;23.70;99.90;;;;;;5017218;28;20709;-32
2023/08/16 01:07:27;;;;;;;5.30;2.80;;;23.70;99.90;;;;;;5015415;28;20296;-32
2023/08/16 01:09:57;;;;;;;5.88;2.40;;;23.70;99.90;;;;;;5023606;28;20690;-31
2023/08/16 01:12:46;;;;;;;5.65;2.50;;;23.70;99.90;;;;;;5026763;28;20951;-31
2023/08/16 01:15:25;;;;;;;3.20;2.08;;;23.60;99.90;;;;;;5021147;28;20292;-31
2023/08/16 01:17:53;;;;;;;4.28;1.70;;;23.60;99.90;;;;;;5019849;28;20216;-31
2023/08/16 01:20:25;;;;;;;4.72;1.95;;;23.60;99.90;;;;;;5024726;28;20204;-31
2023/08/16 01:23:05;;;;;;;5.38;2.35;;;23.60;99.90;;;;;;5027041;28;20367;-31
2023/08/16 01:25:53;;;;;;;4.50;2.08;;;23.70;99.90;;;;;;5025083;28;20204;-31
2023/08/16 01:28:21;;;;;;;4.28;1.98;;;23.60;99.90;;;;;;5026465;28;20310;-31
2023/08/16 01:30:50;;;;;;;5.47;2.30;;;23.60;99.90;;;;;;5026116;28;20625;-32
2023/08/16 01:33:17;;;;;;;3.92;2.22;;;23.70;99.90;;;;;;5025083;28;20262;-32
2023/08/16 01:35:47;;;;;;;3.78;1.95;;;23.70;99.90;;;;;;5009246;28;20216;-32
2023/08/16 01:38:19;;;;;;;2.83;1.90;;;23.70;99.90;;;;;;5026900;28;20233;-31
2023/08/16 01:41:02;;;;;;;4.22;2.10;;;23.70;99.90;;;;;;5026432;28;20539;-31
2023/08/16 01:43:33;;;;;;;3.38;2.05;;;23.70;99.90;;;;;;5026381;28;20208;-31
2023/08/16 01:46:03;;;;;;;4.82;2.40;;;23.70;99.90;;;;;;5026449;28;20213;-31
2023/08/16 01:48:36;;;;;;;5.88;2.28;;;23.70;99.90;;;;;;5026624;28;20219;-31
2023/08/16 01:51:03;;;;;;;6.15;2.20;;;23.70;99.90;;;;;;5026463;28;20972;-31
2023/08/16 01:53:31;;;;;;;4.40;2.30;;;23.70;99.90;;;;;;5024722;28;20208;-31
2023/08/16 01:55:58;;;;;;;4.53;2.13;;;23.70;99.90;;;;;;5026121;28;20587;-31
2023/08/16 01:58:25;;;;;;;4.55;2.30;;;23.60;99.90;;;;;;5008163;28;20232;-31
2023/08/16 02:00:57;;;;;;;3.58;2.42;;;23.60;99.90;;;;;;5026060;28;20203;-31
2023/08/16 02:03:24;;;;;;;3.45;2.20;;;23.60;99.90;;;;;;5025912;28;20196;-31
2023/08/16 02:05:52;;;;;;;3.60;2.08;;;23.50;99.90;;;;;;5024523;28;20201;-31
2023/08/16 02:08:19;;;;;;;4.60;2.28;;;23.50;99.90;;;;;;5008152;28;20208;-32
2023/08/16 02:10:53;;;;;;;3.65;2.20;;;23.50;99.90;;;;;;5026172;28;20636;-24
2023/08/16 02:13:23;;;;;;;3.33;2.17;;;23.50;99.90;;;;;;5026352;28;20217;-23
2023/08/16 02:15:59;;;;;;;3.83;2.33;;;23.50;99.90;;;;;;5025022;28;20205;-23
2023/08/16 02:18:31;;;;;;;3.50;2.30;;;23.50;99.90;;;;;;5036382;28;20538;-23
2023/08/16 02:20:58;;;;;;;5.03;2.28;;;23.50;99.90;;;;;;5045639;28;20225;-23
2023/08/16 02:23:25;;;;;;;7.30;2.35;;;23.50;99.90;;;;;;5045687;28;20628;-24
2023/08/16 02:25:53;;;;;;;5.65;3.17;;;23.50;99.90;;;;;;5046049;28;20261;-24
2023/08/16 02:28:20;;;;;;;4.32;2.60;;;23.50;99.90;;;;;;5045514;28;20220;-23
2023/08/16 02:30:49;;;;;;;3.47;2.25;;;23.40;99.90;;;;;;5045681;28;20204;-23
2023/08/16 02:33:21;;;;;;;5.95;2.55;;;23.40;99.90;;;;;;5045844;28;20879;-24
2023/08/16 02:35:50;;;;;;;3.15;2.22;;;23.30;99.90;;;;;;5045919;28;20269;-23
2023/08/16 02:38:18;;;;;;;4.03;2.60;;;23.30;99.90;;;;;;5045636;28;20683;-24
2023/08/16 02:40:45;;;;;;;5.13;2.97;;;23.30;99.90;;;;;;5043965;28;20200;-24
2023/08/16 02:43:12;;;;;;;5.75;2.83;;;23.30;99.90;;;;;;5044204;28;20671;-24
2023/08/16 02:45:39;;;;;;;6.65;3.47;;;23.30;99.90;;;;;;5044543;28;20738;-23
2023/08/16 02:48:09;;;;;;;5.25;3.03;;;23.20;99.90;;;;;;5044397;28;20201;-23
2023/08/16 02:50:42;;;;;;;5.70;3.10;;;23.20;99.90;;;;;;5044524;28;20204;-24
2023/08/16 02:53:12;;;;;;;4.57;2.80;;;23.20;99.90;;;;;;5043879;28;20204;-23
2023/08/16 02:55:43;;;;;;;3.55;2.90;;;23.10;99.90;;;;;;5043859;28;20219;-24
2023/08/16 02:58:10;;;;;;;7.07;3.15;;;23.10;99.90;;;;;;5027681;28;20231;-24
2023/08/16 03:00:38;;;;;;;4.43;3.22;;;23.00;99.90;;;;;;5043924;28;20283;-24
2023/08/16 03:03:06;;;;;;;7.40;3.45;;;23.00;99.90;;;;;;5047735;28;20223;-24
2023/08/16 03:05:34;;;;;;;5.97;3.20;;;23.00;99.90;;;;;;5047597;28;20200;-24
2023/08/16 03:08:02;;;;;;;5.97;3.25;;;23.00;99.90;;;;;;5047931;28;20192;-23
2023/08/16 03:10:29;;;;;;;4.43;3.22;;;23.00;99.90;;;;;;5047715;28;20737;-24
2023/08/16 03:12:56;;;;;;;5.10;3.50;;;23.00;99.90;;;;;;5049136;28;20217;-23
2023/08/16 03:15:23;;;;;;;6.22;3.80;;;22.90;99.90;;;;;;5030918;28;20204;-24
2023/08/16 03:17:50;;;;;;;6.63;3.33;;;22.90;99.90;;;;;;5047469;28;20205;-23
2023/08/16 03:20:25;;;;;;;6.25;3.67;;;22.90;99.90;;;;;;5047449;28;20766;-24
2023/08/16 03:22:55;;;;;;;4.78;3.58;;;22.80;99.90;;;;;;5047708;28;20769;-23
2023/08/16 03:25:24;;;;;;;5.70;3.42;;;22.80;99.90;;;;;;5048664;28;20291;-23
2023/08/16 03:27:51;;;;;;;6.47;3.63;;;22.80;99.90;;;;;;5047994;28;20262;-23
2023/08/16 03:30:18;;;;;;;7.05;3.58;;;22.80;99.90;;;;;;5047586;28;20230;-23
2023/08/16 03:32:48;;;;;;;6.25;3.72;;;22.80;99.90;;;;;;5047372;28;20309;-23
2023/08/16 03:35:15;;;;;;;6.38;3.80;;;22.80;99.90;;;;;;5048706;28;20704;-24
2023/08/16 03:37:44;;;;;;;5.75;4.15;;;22.80;99.90;;;;;;5048581;28;20261;-24
2023/08/16 03:40:14;;;;;;;7.07;4.13;;;22.70;99.90;;;;;;5048560;28;20221;-24
2023/08/16 03:42:44;;;;;;;4.05;3.47;;;22.70;99.90;;;;;;5047124;28;20775;-23
2023/08/16 03:45:11;;;;;;;5.53;3.40;;;22.70;99.90;;;;;;5030998;28;20587;-24
2023/08/16 03:47:39;;;;;;;7.85;3.97;;;22.70;99.90;;;;;;5048216;28;20196;-24
2023/08/16 03:50:08;;;;;;;7.53;3.88;;;22.70;99.90;;;;;;5046973;28;20204;-23
2023/08/16 03:52:36;;;;;;;6.93;3.88;;;22.70;99.90;;;;;;5046680;28;20208;-24
2023/08/16 03:55:03;;;;;;;7.18;3.60;;;22.70;99.90;;;;;;5046841;28;20212;-24
2023/08/16 03:57:30;;;;;;;5.22;3.85;;;22.60;99.90;;;;;;5047059;28;20615;-23
2023/08/16 03:59:59;;;;;;;4.60;3.63;;;22.60;99.90;;;;;;5046731;28;20753;-23
2023/08/16 04:02:27;;;;;;;3.67;3.17;;;22.60;99.90;;;;;;5048425;28;20573;-24
2023/08/16 04:05:06;;;;;;;7.97;3.80;;;22.60;99.90;;;;;;5047095;28;20700;-24
2023/08/16 04:07:35;;;;;;;5.70;3.95;;;22.60;99.90;;;;;;5031951;28;20208;-24
2023/08/16 04:10:05;;;;;;;6.15;3.60;;;22.50;99.90;;;;;;5047986;28;20192;-23
2023/08/16 04:12:37;;;;;;;6.55;3.80;;;22.50;99.90;;;;;;5046366;28;20201;-23
2023/08/16 04:15:05;;;;;;;7.30;3.88;;;22.50;99.90;;;;;;5046229;28;20261;-24
2023/08/16 04:17:32;;;;;;;5.32;4.03;;;22.50;99.90;;;;;;5048063;28;20695;-23
2023/08/16 04:19:59;;;;;;;8.50;4.13;;;22.40;99.90;;;;;;5046454;28;20231;-23
2023/08/16 04:22:27;;;;;;;7.43;4.10;;;22.40;99.90;;;;;;5046215;28;20696;-23
2023/08/16 04:24:54;;;;;;;6.75;3.92;;;22.40;99.90;;;;;;5046253;28;20439;-24
2023/08/16 04:27:26;;;;;;;4.57;3.65;;;22.40;99.90;;;;;;5047735;28;20259;-23
2023/08/16 04:29:53;;;;;;;5.88;3.63;;;22.40;99.90;;;;;;5046028;28;20285;-23
2023/08/16 04:32:23;;;;;;;6.00;3.30;;;22.40;99.90;;;;;;5047623;28;20669;-24
2023/08/16 04:34:52;;;;;;;7.05;3.65;;;22.40;99.90;;;;;;5030238;28;20579;-23
2023/08/16 04:37:20;;;;;;;6.40;3.65;;;22.40;99.90;;;;;;5046160;28;20639;-24
2023/08/16 04:39:48;;;;;;;4.57;3.40;;;22.30;99.90;;;;;;5045691;28;20737;-24
2023/08/16 04:42:15;;;;;;;7.10;4.18;;;22.30;99.90;;;;;;5047310;28;20223;-23
2023/08/16 04:44:43;;;;;;;6.72;3.90;;;22.30;99.90;;;;;;5047493;28;20911;-23
2023/08/16 04:47:10;;;;;;;4.72;3.53;;;22.30;99.90;;;;;;5046038;28;20201;-24
2023/08/16 04:49:37;;;;;;;7.05;4.07;;;22.30;99.90;;;;;;5013075;28;20290;-24
2023/08/16 04:52:05;;;;;;;5.50;4.03;;;22.20;99.90;;;;;;5046978;28;20270;-24
2023/08/16 04:54:34;;;;;;;5.60;3.80;;;22.20;99.90;;;;;;5045833;28;20291;-24
2023/08/16 04:57:02;;;;;;;7.40;3.58;;;22.20;99.90;;;;;;5047026;28;20208;-24
2023/08/16 04:59:29;;;;;;;6.57;4.07;;;22.20;99.90;;;;;;5045518;28;20327;-24
2023/08/16 05:01:56;;;;;;;6.47;4.47;;;22.20;99.90;;;;;;5046943;28;20697;-24
2023/08/16 05:04:23;;;;;;;5.75;3.92;;;22.30;99.90;;;;;;5046865;28;20253;-24
2023/08/16 05:06:50;;;;;;;6.25;3.97;;;22.20;99.90;;;;;;5046891;28;20273;-24
2023/08/16 05:09:18;;;;;;;5.10;4.05;;;22.20;99.90;;;;;;5046726;28;20715;-24
2023/08/16 05:11:47;;;;;;;6.47;3.45;;;22.20;99.90;;;;;;5045475;28;20683;-23
2023/08/16 05:14:17;;;;;;;5.90;4.05;;;22.20;99.90;;;;;;5046940;28;20216;-23
2023/08/16 05:16:44;;;;;;;5.25;4.07;;;22.20;99.90;;;;;;5045276;28;20200;-24
2023/08/16 05:19:13;;;;;;;5.88;4.00;;;22.20;99.90;;;;;;5045320;28;20220;-23
2023/08/16 05:21:42;;;;;;;5.57;4.15;;;22.20;99.90;;;;;;5029808;28;20240;-24
2023/08/16 05:24:15;;;;;;;6.47;4.20;;;22.20;99.90;;;;;;5045974;28;20204;-24
2023/08/16 05:26:44;;;;;;;7.65;3.72;;;22.20;99.90;;;;;;5028346;28;20200;-24
2023/08/16 05:29:11;;;;;;;7.85;3.80;;;22.20;99.90;;;;;;5046490;28;20212;-23
2023/08/16 05:31:41;;;;;;;8.23;4.35;;;22.20;99.90;;;;;;5046590;28;20200;-23
2023/08/16 05:34:11;;;;;;;5.63;4.07;;;22.20;99.90;;;;;;5044993;28;20216;-23
2023/08/16 05:36:50;;;;;;;5.78;4.15;;;22.20;99.90;;;;;;5044686;28;20216;-23
2023/08/16 05:39:17;;;;;;;7.25;4.28;;;22.20;99.90;;;;;;5045346;28;20305;-23
2023/08/16 05:41:50;;;;;;;8.05;4.15;;;22.20;99.90;;;;;;5046282;28;20249;-23
2023/08/16 05:44:17;;;;;;;6.05;4.18;;;22.20;99.90;;;;;;5046108;28;20594;-24
2023/08/16 05:46:45;;;;;;;5.20;3.83;;;22.20;99.90;;;;;;5028122;28;20196;-31
2023/08/16 05:49:12;;;;;;;7.18;4.50;;;22.20;99.90;;;;;;5044484;28;20231;-31
2023/08/16 05:51:41;;;;;;;9.90;4.43;;;22.20;99.90;;;;;;5044712;28;20262;-24
2023/08/16 05:54:11;;;;;;;4.50;4.10;;;22.30;99.90;;;;;;5028434;28;20216;-24
2023/08/16 05:56:38;;;;;;;5.45;4.18;;;22.30;99.90;;;;;;5044442;28;20200;-24
2023/08/16 05:59:05;;;;;;;7.25;4.15;;;22.30;99.90;;;;;;5028211;28;20219;-24
2023/08/16 06:01:37;;;;;;;6.35;3.72;;;22.30;99.90;;;;;;5044132;28;20204;-23
2023/08/16 06:04:07;;;;;;;7.93;4.80;;;22.30;99.90;;;;;;5045399;28;20274;-24
2023/08/16 06:06:35;;;;;;;6.95;4.13;;;22.30;99.90;;;;;;5044342;28;20224;-24
2023/08/16 06:09:07;;;;;;;5.20;4.32;;;22.30;99.90;;;;;;5028054;28;20208;-23
2023/08/16 06:11:34;;;;;;;4.95;4.18;;;22.30;99.90;;;;;;5044297;28;20208;-24
2023/08/16 06:14:06;;;;;;;5.18;4.32;;;22.30;99.90;;;;;;5045634;28;20233;-24
2023/08/16 06:16:33;;;;;;;7.22;4.22;;;22.40;99.90;;;;;;5043928;28;20254;-24
2023/08/16 06:19:03;;;;;;;8.88;4.63;;;22.40;99.90;;;;;;5043959;28;20230;-24
2023/08/16 06:21:30;;;;;;;6.80;3.92;;;22.40;99.90;;;;;;5045533;28;20204;-23
2023/08/16 06:23:58;;;;;;;8.73;4.32;;;22.40;99.90;;;;;;5045603;28;20204;-23
2023/08/16 06:26:25;;;;;;;5.95;4.30;;;22.40;99.90;;;;;;5027624;28;20608;-24
2023/08/16 06:28:52;;;;;;;7.85;4.22;;;22.50;99.90;;;;;;5045602;28;20205;-24
2023/08/16 06:31:19;;;;;;;5.47;4.30;;;22.50;99.90;;;;;;5045350;28;20239;-23
2023/08/16 06:33:47;;;;;;;7.07;4.82;;;22.50;99.90;;;;;;5045530;28;20711;-24
2023/08/16 06:36:16;;;;;;;7.97;4.78;;;22.50;99.90;;;;;;5045687;28;20188;-23
2023/08/16 06:38:43;;;;;;;8.32;4.88;;;22.50;99.90;;;;;;5048154;28;20232;-23
2023/08/16 06:41:13;;;;;;;6.38;4.68;;;22.50;99.90;;;;;;5032397;28;20211;-31
2023/08/16 06:43:40;;;;;;;7.38;5.25;;;22.50;99.90;;;;;;5048107;28;20204;-31
2023/08/16 06:46:07;;;;;;;7.88;4.80;;;22.50;99.90;;;;;;5048178;28;20254;-31
2023/08/16 06:48:37;;;;;;;8.32;4.88;;;22.50;99.90;;;;;;5049464;28;20230;-31
2023/08/16 06:51:04;;;;;;;7.20;5.00;;;22.60;99.90;;;;;;5047598;28;20732;-31
2023/08/16 06:53:39;;;;;;;8.20;4.05;;;22.60;99.90;;;;;;5047579;28;20621;-31
2023/08/16 06:56:06;;;;;;;6.10;4.47;;;22.60;99.90;;;;;;5049245;28;20274;-32
2023/08/16 06:58:36;;;;;;;9.98;5.18;;;22.60;99.90;;;;;;5049240;28;20224;-32
2023/08/16 07:01:03;;;;;;;7.97;5.32;;;22.60;99.90;;;;;;5047633;28;20228;-31
2023/08/16 07:03:33;;;;;;;8.68;5.53;;;22.70;99.90;;;;;;5047931;28;20278;-31
2023/08/16 07:06:03;;;;;;;7.20;4.47;;;22.70;99.90;;;;;;5047767;28;20201;-32
2023/08/16 07:08:32;;;;;;;7.65;5.10;;;22.70;99.90;;;;;;5049287;28;20200;-31
2023/08/16 07:10:59;;;;;;;10.30;5.07;;;22.70;99.90;;;;;;5049278;28;20211;-32
2023/08/16 07:13:27;;;;;;;6.95;4.80;;;22.70;99.90;;;;;;5031445;28;20212;-32
2023/08/16 07:15:54;;;;;;;10.38;5.43;;;22.80;99.90;;;;;;5047537;28;20204;-32
2023/08/16 07:18:21;;;;;;;8.57;5.22;;;22.80;99.90;;;;;;5048935;28;20787;-32
2023/08/16 07:20:48;;;;;;;8.13;5.63;;;22.90;99.90;;;;;;5047201;28;20216;-32
2023/08/16 07:23:16;;;;;;;11.07;5.82;;;22.90;99.90;;;;;;5047421;28;20243;-32
2023/08/16 07:25:45;;;;;;;6.78;4.90;;;23.00;99.90;;;;;;5047186;28;20196;-31
2023/08/16 07:28:15;;;;;;;8.13;5.32;;;23.00;99.90;;;;;;5030924;28;20212;-32
2023/08/16 07:30:43;;;;;;;6.70;5.55;;;23.10;99.90;;;;;;5048563;28;20626;-32
2023/08/16 07:33:12;;;;;;;9.20;5.75;;;23.20;99.90;;;;;;5048577;28;20208;-31
2023/08/16 07:35:39;;;;;;;12.55;6.28;;;23.20;99.90;;;;;;5048391;28;20204;-32
2023/08/16 07:38:07;;;;;;;11.88;7.07;;;23.30;99.90;;;;;;5046935;28;20236;-31
2023/08/16 07:40:34;;;;;;;9.90;6.63;;;23.30;99.90;;;;;;5048289;28;20301;-32
2023/08/16 07:43:01;;;;;;;9.65;6.00;;;23.30;99.90;;;;;;5046689;28;20214;-32
2023/08/16 07:45:29;;;;;;;10.40;6.32;;;23.30;99.90;;;;;;5048253;28;20192;-31
2023/08/16 07:47:56;;;;;;;9.80;6.35;;;23.30;99.90;;;;;;5030371;28;20188;-31
2023/08/16 07:50:26;;;;;;;10.23;5.25;;;23.30;99.90;;;;;;5047186;28;20313;-31
2023/08/16 07:52:56;;;;;;;8.85;6.18;;;23.40;99.90;;;;;;5046910;28;20204;-31
2023/08/16 07:55:33;;;;;;;10.27;5.65;;;23.50;99.90;;;;;;5030605;28;21106;-31
2023/08/16 07:58:01;;;;;;;7.47;5.63;;;23.50;99.90;;;;;;5047049;28;20205;-31
2023/08/16 08:00:30;;;;;;;10.88;5.80;;;23.50;99.90;;;;;;5046455;28;20227;-31
2023/08/16 08:02:58;;;;;;;7.05;5.13;;;23.60;99.90;;;;;;5046656;28;20200;-32
2023/08/16 08:05:31;;;;;;;8.30;5.20;;;23.70;99.90;;;;;;5047807;28;20211;-31
2023/08/16 08:08:04;;;;;;;9.55;5.60;;;23.70;99.90;;;;;;5047691;28;20757;-32
2023/08/16 08:10:34;;;;;;;8.63;5.47;;;23.70;99.90;;;;;;5046192;28;20588;-31
2023/08/16 08:13:02;;;;;;;5.63;4.60;;;23.80;99.90;;;;;;5047705;28;20419;-32
2023/08/16 08:15:30;;;;;;;8.93;4.68;;;23.80;99.90;;;;;;5046379;28;20327;-32
2023/08/16 08:17:59;;;;;;;6.57;5.40;;;23.80;99.90;;;;;;5046230;28;20675;-32
2023/08/16 08:20:27;;;;;;;7.97;5.40;;;24.00;99.90;;;;;;5047447;28;20315;-24
2023/08/16 08:22:54;;;;;;;8.52;5.40;;;24.00;99.90;;;;;;5046164;28;20200;-23
2023/08/16 08:25:21;;;;;;;8.48;5.60;;;24.00;99.90;;;;;;5047690;28;20227;-24
2023/08/16 08:27:49;;;;;;;8.10;5.18;;;24.00;99.90;;;;;;5047594;28;20572;-24
2023/08/16 08:30:18;;;;;;;8.68;5.47;;;24.10;99.90;;;;;;5047339;28;20215;-23
2023/08/16 08:32:48;;;;;;;8.00;5.40;;;24.10;99.90;;;;;;5046019;28;20734;-24
2023/08/16 08:39:10;;;;;;;8.25;5.70;;;24.20;99.90;;;;;;5002519;28;20841;-24
2023/08/16 08:42:48;;;;;;;8.32;5.40;;;24.30;99.90;;;;;;5006430;28;20276;-23
2023/08/16 08:45:58;;;;;;;9.30;5.50;;;24.30;99.90;;;;;;5049196;28;20211;-24
2023/08/16 08:53:24;;;;;;;9.00;6.05;;;24.40;99.90;;;;;;5018492;28;20495;-24
2023/08/16 09:09:02;;;;;;;6.88;5.07;;;24.60;99.90;;;;;;4811846;29;20758;-24
2023/08/16 09:16:14;;;;;;;10.20;5.95;;;24.80;99.90;;;;;;4841276;29;20214;-24
2023/08/16 09:19:23;;;;;;;7.60;5.40;;;24.80;99.90;;;;;;4851666;29;20755;-24
2023/08/16 09:22:02;;;;;;;7.63;4.97;;;24.80;99.90;;;;;;4928130;28;20212;-24
2023/08/16 09:26:01;;;;;;;8.48;5.13;;;24.80;99.90;;;;;;4943072;28;20263;-24
2023/08/16 09:29:06;;;;;;;6.95;4.57;;;24.90;99.90;;;;;;4963407;28;20206;-24
2023/08/16 09:32:22;;;;;;;8.93;5.50;;;24.90;99.90;;;;;;4964757;28;20285;-24
2023/08/16 09:38:46;;;;;;;6.45;4.47;;;25.00;99.90;;;;;;4888953;29;20309;-32
2023/08/16 09:45:36;;;;;;;5.20;4.15;;;25.10;99.90;;;;;;4964492;28;20337;-32
2023/08/16 09:49:09;;;;;;;6.85;4.78;;;25.30;99.90;;;;;;4980158;28;20194;-32
2023/08/16 09:52:22;;;;;;;6.55;4.75;;;25.30;99.90;;;;;;4998807;28;20937;-31
2023/08/16 09:55:39;;;;;;;7.68;4.60;;;25.30;99.90;;;;;;5086457;28;20214;-32
2023/08/16 09:58:59;;;;;;;5.57;3.88;;;25.30;99.90;;;;;;4887302;29;20213;-23
2023/08/16 10:02:03;;;;;;;8.00;4.70;;;25.30;99.90;;;;;;4887269;29;20241;-24
2023/08/16 10:05:52;;;;;;;9.75;5.18;;;25.40;99.90;;;;;;4887549;29;20348;-24
2023/08/16 10:08:26;;;;;;;9.60;4.82;;;25.40;99.90;;;;;;4919299;29;20215;-24
2023/08/16 10:11:36;;;;;;;9.88;4.55;;;25.50;99.90;;;;;;4901420;28;20303;-24
2023/08/16 10:18:24;;;;;;;6.65;4.50;;;25.60;99.90;;;;;;4983492;28;20232;-24
2023/08/16 10:21:41;;;;;;;5.13;3.83;;;25.70;99.90;;;;;;4983269;28;20234;-24
2023/08/16 10:25:23;;;;;;;6.05;4.38;;;25.80;99.90;;;;;;4966748;28;20194;-24
2023/08/16 10:28:54;;;;;;;6.43;3.67;;;25.90;99.90;;;;;;4903363;29;20300;-24
2023/08/16 10:31:32;;;;;;;5.38;3.63;;;26.00;99.90;;;;;;4924393;29;20266;-24
2023/08/16 10:43:37;;;;;;;7.15;4.15;;;26.30;99.90;;;;;;5005702;28;20237;-24
2023/08/16 10:46:07;;;;;;;6.05;3.95;;;26.40;99.90;;;;;;5022621;28;20247;-24
2023/08/16 10:53:32;;;;;;;5.60;4.22;;;26.50;99.90;;;;;;5002529;28;20202;-24
2023/08/16 11:00:33;;;;;;;7.03;4.10;;;26.60;99.90;;;;;;5001981;28;20249;-24
2023/08/16 11:03:49;;;;;;;7.55;3.97;;;26.50;99.90;;;;;;5002127;28;20206;-24
2023/08/16 11:06:23;;;;;;;3.72;3.00;;;26.50;99.90;;;;;;5002231;28;20275;-24
2023/08/16 11:08:53;;;;;;;7.32;4.85;;;26.60;99.90;;;;;;5013489;28;20203;-24
2023/08/16 11:11:52;;;;;;;5.57;3.72;;;26.60;99.90;;;;;;5083638;28;20207;-24
2023/08/16 11:14:55;;;;;;;3.97;3.30;;;26.60;99.90;;;;;;5014413;28;20362;-25
2023/08/16 11:17:34;;;;;;;5.50;3.55;;;26.70;99.90;;;;;;5063898;28;20203;-25
2023/08/16 11:20:47;;;;;;;7.60;4.30;;;26.70;99.90;;;;;;5083242;28;20222;-26
2023/08/16 11:23:21;;;;;;;11.55;4.07;;;26.80;99.90;;;;;;5005171;28;20217;-25
2023/08/16 11:26:10;;;;;;;12.35;4.70;;;26.70;99.90;;;;;;4991419;28;20198;-24
2023/08/16 11:28:56;;;;;;;7.32;3.92;;;26.80;99.90;;;;;;4990621;28;20206;-24
2023/08/16 11:31:46;;;;;;;7.25;3.42;;;26.80;99.90;;;;;;4990427;28;20292;-33
2023/08/16 11:34:18;;;;;;;4.78;3.45;;;26.90;99.90;;;;;;5024374;28;20199;-32
2023/08/16 11:36:56;;;;;;;5.30;3.33;;;26.90;99.90;;;;;;5087399;28;20198;-32
2023/08/16 11:39:29;;;;;;;6.03;2.90;;;27.00;99.90;;;;;;5088055;28;20219;-32
2023/08/16 11:41:57;;;;;;;5.80;3.53;;;27.10;99.90;;;;;;5088197;28;20667;-32
2023/08/16 11:44:24;;;;;;;5.20;3.22;;;27.20;99.90;;;;;;5088156;28;20234;-32
2023/08/16 11:46:51;;;;;;;10.32;3.92;;;27.30;99.90;;;;;;5086896;28;20256;-32
2023/08/16 11:49:22;;;;;;;7.88;3.90;;;27.30;99.90;;;;;;5088442;28;20207;-32
2023/08/16 11:51:52;;;;;;;5.97;3.00;;;27.40;99.90;;;;;;5088639;28;20202;-33
2023/08/16 11:54:35;;;;;;;7.13;3.42;;;27.40;99.90;;;;;;5086601;28;20302;-33
2023/08/16 11:57:19;;;;;;;6.07;3.00;;;27.40;99.90;;;;;;5086936;28;20294;-33
2023/08/16 12:00:05;;;;;;;6.65;2.80;;;27.40;99.90;;;;;;5087304;28;20572;-32
2023/08/16 12:02:32;;;;;;;5.35;3.22;;;27.50;99.90;;;;;;5088636;28;20628;-32
2023/08/16 12:05:15;;;;;;;7.18;2.95;;;27.50;99.90;;;;;;5088416;28;20199;-32
2023/08/16 12:08:03;;;;;;;6.28;2.70;;;27.50;99.90;;;;;;5088279;28;20703;-32
2023/08/16 12:10:40;;;;;;;4.90;2.70;;;27.60;99.90;;;;;;5086509;28;20680;-33
2023/08/16 12:13:17;;;;;;;7.45;3.33;;;27.60;99.90;;;;;;5085652;28;20592;-32
2023/08/16 12:16:12;;;;;;;3.90;2.92;;;27.60;99.90;;;;;;5056976;28;20217;-32
2023/08/16 12:18:53;;;;;;;4.80;2.78;;;27.70;99.90;;;;;;5086425;28;20242;-32
2023/08/16 12:21:20;;;;;;;4.90;2.42;;;27.70;99.90;;;;;;5085894;28;20704;-33
2023/08/16 12:23:58;;;;;;;3.95;2.00;;;27.70;99.90;;;;;;5087781;28;20200;-33
2023/08/16 12:26:28;;;;;;;5.18;2.20;;;27.70;99.90;;;;;;5070144;28;20211;-33
2023/08/16 12:29:14;;;;;;;4.13;1.95;;;27.80;99.90;;;;;;5087562;28;20206;-33
2023/08/16 12:31:56;;;;;;;5.97;2.22;;;27.80;99.90;;;;;;5086038;28;20214;-33
2023/08/16 12:34:48;;;;;;;2.38;1.90;;;27.70;99.90;;;;;;5087781;28;20285;-34
2023/08/16 12:37:26;;;;;;;3.10;1.77;;;27.70;99.90;;;;;;5087719;28;20203;-34
2023/08/16 12:40:17;;;;;;;3.75;1.75;;;27.80;99.90;;;;;;5045886;28;20209;-34
2023/08/16 12:42:52;;;;;;;2.03;1.58;;;27.80;99.90;;;;;;5086212;28;20253;-33
2023/08/16 12:45:20;;;;;;;2.92;1.90;;;27.80;99.90;;;;;;5087562;28;20226;-33
2023/08/16 12:48:14;;;;;;;3.75;1.75;;;27.80;99.90;;;;;;5057395;28;20191;-32
2023/08/16 12:50:42;;;;;;;3.35;1.60;;;27.80;99.90;;;;;;5087315;28;20998;-33
2023/08/16 12:53:30;;;;;;;3.47;1.50;;;27.90;99.90;;;;;;5087149;28;20218;-33
2023/08/16 12:56:20;;;;;;;4.47;1.75;;;27.90;99.90;;;;;;5022952;28;20509;-33
2023/08/16 12:59:05;;;;;;;4.38;1.88;;;28.00;99.90;;;;;;5017712;28;20216;-32
2023/08/16 13:01:51;;;;;;;4.53;1.65;;;28.00;99.90;;;;;;5022899;28;20221;-33
2023/08/16 13:04:55;;;;;;;2.38;1.40;;;28.00;99.90;;;;;;5022676;28;20212;-32
2023/08/16 13:08:05;;;;;;;5.38;1.67;;;28.00;99.90;;;;;;5008107;28;20848;-32
2023/08/16 13:10:57;;;;;;;4.70;1.63;;;27.90;99.90;;;;;;5083668;28;20699;-32
2023/08/16 13:14:10;;;;;;;3.33;1.73;;;27.90;99.90;;;;;;5073016;28;20190;-32
2023/08/16 13:16:51;;;;;;;2.50;1.23;;;27.90;99.90;;;;;;5086135;28;20207;-32
2023/08/16 13:19:37;;;;;;;8.95;1.77;;;27.90;99.90;;;;;;5070880;28;20211;-32
2023/08/16 13:22:14;;;;;;;5.50;1.65;;;27.90;99.90;;;;;;5086508;28;20215;-32
2023/08/16 13:24:54;;;;;;;2.05;1.30;;;27.90;99.90;;;;;;5068508;28;20293;-32
2023/08/16 13:27:28;;;;;;;1.52;1.30;;;27.90;99.90;;;;;;5086234;28;20199;-33
2023/08/16 13:30:10;;;;;;;4.40;1.70;;;28.00;99.90;;;;;;5069530;28;20563;-32
2023/08/16 13:33:12;;;;;;;6.97;2.03;;;28.00;99.90;;;;;;5070926;28;20244;-24
2023/08/16 13:35:57;;;;;;;4.10;1.80;;;28.10;99.90;;;;;;5027343;28;20545;-24
2023/08/16 13:38:34;;;;;;;3.95;1.98;;;28.20;99.90;;;;;;5069479;28;20199;-24
2023/08/16 13:41:35;;;;;;;2.65;1.55;;;28.20;99.90;;;;;;5086163;28;20218;-23
2023/08/16 13:44:31;;;;;;;4.93;1.77;;;28.30;99.90;;;;;;5072157;28;20237;-23
2023/08/16 13:47:25;;;;;;;2.85;1.65;;;28.30;99.90;;;;;;5053876;28;20191;-23
2023/08/16 13:50:01;;;;;;;2.50;1.38;;;28.30;99.90;;;;;;5067915;28;20199;-23
2023/08/16 13:52:41;;;;;;;8.05;1.50;;;28.30;99.90;;;;;;5067562;28;20218;-23
2023/08/16 13:55:34;;;;;;;1.55;1.15;;;28.30;99.90;;;;;;5070194;28;20213;-24
2023/08/16 13:58:28;;;;;;;2.10;1.38;;;28.30;99.90;;;;;;5067658;28;20210;-23
2023/08/16 14:01:03;;;;;;;1.90;1.40;;;28.30;99.90;;;;;;5084935;28;20276;-25
2023/08/16 14:04:05;;;;;;;2.25;1.50;;;28.30;99.90;;;;;;5085595;28;20199;-25
2023/08/16 14:06:46;;;;;;;1.80;1.30;;;28.30;99.90;;;;;;5085794;28;20756;-23
2023/08/16 14:09:30;;;;;;;1.90;1.40;;;28.30;99.90;;;;;;5070785;28;20221;-24
2023/08/16 14:12:18;;;;;;;3.08;1.60;;;28.30;99.90;;;;;;5085566;28;20294;-24
2023/08/16 14:15:12;;;;;;;3.30;1.58;;;28.30;99.90;;;;;;4989220;28;20209;-25
2023/08/16 14:17:59;;;;;;;4.47;1.63;;;28.30;99.90;;;;;;4988366;28;20227;-25
2023/08/16 14:20:27;;;;;;;4.90;1.80;;;28.30;99.90;;;;;;4986250;28;20304;-24
2023/08/16 14:23:13;;;;;;;3.17;1.98;;;28.30;99.90;;;;;;4988517;28;20201;-24
2023/08/16 14:25:52;;;;;;;5.28;1.90;;;28.30;99.90;;;;;;4986939;28;20211;-24